Time;durP1;ratioP1;P1;durP2;ratioP2;P2;SDS_P1;SDS_P2;PMS_P1;PMS_P2;Temp;Humidity;BMP_temperature;BMP_pressure;BME280_temperature;BME280_humidity;BME280_pressure;Samples;Min_cycle;Max_cycle;Signal;HPM_P1;HPM_P2
2022/07/18 00:01:44;;;;;;;;;8.00;7.00;;;;;27.22;27.42;101698.75;4900055;29;45426;-56
2022/07/18 00:04:09;;;;;;;;;8.00;8.00;;;;;27.23;27.52;101703.09;4900453;29;45342;-53
2022/07/18 00:06:35;;;;;;;;;9.50;8.50;;;;;27.21;27.67;101698.84;4900320;29;45273;-56
2022/07/18 00:09:01;;;;;;;;;9.00;9.00;;;;;27.22;27.33;101697.88;4900665;29;45436;-57
2022/07/18 00:11:26;;;;;;;;;6.50;6.50;;;;;27.20;27.38;101698.00;4900728;29;45251;-52
2022/07/18 00:13:52;;;;;;;;;7.50;7.50;;;;;27.20;27.74;101687.34;4900693;29;45273;-56
2022/07/18 00:16:18;;;;;;;;;7.75;6.75;;;;;27.20;27.95;101691.81;4900439;29;45282;-57
2022/07/18 00:18:44;;;;;;;;;8.25;8.25;;;;;27.20;27.88;101687.34;4900336;29;45248;-56
2022/07/18 00:21:09;;;;;;;;;8.00;6.00;;;;;27.20;27.75;101687.34;4900146;29;45436;-56
2022/07/18 00:23:34;;;;;;;;;6.50;5.50;;;;;27.21;27.86;101690.84;4882382;29;45918;-52
2022/07/18 00:26:00;;;;;;;;;8.00;6.00;;;;;27.20;27.97;101692.69;4900186;29;45380;-55
2022/07/18 00:28:25;;;;;;;;;5.75;5.75;;;;;27.21;27.62;101690.84;4900639;29;45329;-54
2022/07/18 00:30:50;;;;;;;;;6.00;6.00;;;;;27.21;27.86;101686.41;4899721;29;46361;-56
2022/07/18 00:33:16;;;;;;;;;6.50;6.25;;;;;27.21;27.77;101685.53;4900040;28;45423;-58
2022/07/18 00:35:41;;;;;;;;;5.25;5.00;;;;;27.20;27.83;101687.34;4899750;29;45420;-47
2022/07/18 00:38:06;;;;;;;;;6.00;6.00;;;;;27.21;27.77;101685.53;4900423;29;45921;-54
2022/07/18 00:40:32;;;;;;;;;7.50;6.75;;;;;27.20;28.03;101683.81;4899653;29;45890;-51
2022/07/18 00:42:58;;;;;;;;;5.00;5.00;;;;;27.20;27.73;101691.81;4900003;29;45361;-54
2022/07/18 00:45:23;;;;;;;;;5.00;4.50;;;;;27.19;27.71;101690.97;4900410;29;45392;-51
2022/07/18 00:47:51;;;;;;;;;4.00;4.00;;;;;27.19;27.55;101682.13;4899909;29;45243;-49
2022/07/18 00:50:17;;;;;;;;;6.00;6.00;;;;;27.19;27.86;101685.66;4900038;28;45346;-53
2022/07/18 00:52:43;;;;;;;;;8.50;6.50;;;;;27.18;27.79;101681.28;4899621;29;45716;-49
2022/07/18 00:55:08;;;;;;;;;6.50;5.00;;;;;27.19;27.85;101682.13;4899790;29;45293;-50
2022/07/18 00:57:35;;;;;;;;;6.00;6.00;;;;;27.18;28.08;101681.28;4899833;29;45590;-53
2022/07/18 01:02:45;;;;;;;;;4.50;4.50;;;;;27.17;27.47;101680.41;4899483;29;46007;-53
2022/07/18 01:05:10;;;;;;;;;5.75;5.00;;;;;27.15;27.63;101682.38;4899730;29;45353;-55
2022/07/18 01:07:36;;;;;;;;;5.00;4.00;;;;;27.15;27.71;101679.69;4899584;29;45394;-57
2022/07/18 01:10:04;;;;;;;;;4.00;4.00;;;;;27.13;27.47;101673.63;4899457;29;47515;-58
2022/07/18 01:12:30;;;;;;;;;5.00;5.00;;;;;27.12;27.66;101671.94;4899151;29;45325;-56
2022/07/18 01:14:57;;;;;;;;;7.50;5.00;;;;;27.12;27.77;101668.44;4899909;29;45464;-57
2022/07/18 01:17:23;;;;;;;;;4.00;4.00;;;;;27.11;27.78;101670.22;4900150;29;45491;-58
2022/07/18 01:19:48;;;;;;;;;4.25;4.25;;;;;27.11;27.72;101669.38;4898008;29;48135;-58
2022/07/18 01:22:16;;;;;;;;;4.00;4.00;;;;;27.10;27.73;101668.53;4899440;29;45429;-58
2022/07/18 01:24:42;;;;;;;;;5.00;4.25;;;;;27.10;28.00;101667.69;4897910;29;45498;-57
2022/07/18 01:27:08;;;;;;;;;4.00;4.00;;;;;27.10;27.31;101671.19;4899587;29;45447;-59
2022/07/18 01:29:33;;;;;;;;;5.00;5.00;;;;;27.10;27.80;101665.84;4899024;29;45975;-57
2022/07/18 01:32:05;;;;;;;;;6.75;5.00;;;;;27.10;28.16;101663.19;4899424;29;45380;-52
2022/07/18 01:34:31;;;;;;;;;5.00;4.00;;;;;27.10;27.58;101673.84;4898256;29;45359;-56
2022/07/18 01:36:56;;;;;;;;;4.00;4.00;;;;;27.11;28.14;101675.53;4899667;29;45759;-49
2022/07/18 01:39:22;;;;;;;;;3.00;3.00;;;;;27.11;27.46;101680.03;4898231;29;47464;-55
2022/07/18 01:42:02;;;;;;;;;4.00;3.50;;;;;27.11;27.60;101680.88;4898911;28;45463;-55
2022/07/18 01:44:28;;;;;;;;;7.00;4.25;;;;;27.11;28.02;101674.72;4899047;29;45233;-52
2022/07/18 01:46:54;;;;;;;;;4.50;4.50;;;;;27.11;28.04;101672.03;4899664;29;45385;-56
2022/07/18 01:49:21;;;;;;;;;3.00;3.00;;;;;27.11;27.81;101672.88;4898917;29;47230;-54
2022/07/18 01:51:48;;;;;;;;;8.75;4.75;;;;;27.10;27.84;101673.00;4898937;29;45768;-57
2022/07/18 01:54:14;;;;;;;;;4.75;4.75;;;;;27.09;27.83;101674.78;4899191;29;45390;-56
2022/07/18 01:56:40;;;;;;;;;4.00;4.00;;;;;27.09;27.56;101666.81;4899064;29;45418;-46
2022/07/18 01:59:05;;;;;;;;;4.00;4.00;;;;;27.10;28.02;101665.03;4898921;29;45360;-51
2022/07/18 02:01:31;;;;;;;;;3.50;3.50;;;;;27.09;28.01;101656.16;4898824;29;45491;-52
2022/07/18 02:03:56;;;;;;;;;4.50;4.00;;;;;27.09;27.91;101661.50;4899096;29;45357;-49
2022/07/18 02:06:22;;;;;;;;;4.00;4.00;;;;;27.08;27.68;101659.78;4899412;29;45619;-53
2022/07/18 02:08:47;;;;;;;;;2.00;2.00;;;;;27.09;27.97;101652.69;4898550;29;46160;-49
2022/07/18 02:11:12;;;;;;;;;4.50;3.75;;;;;27.08;27.59;101643.81;4898746;28;45209;-57
2022/07/18 02:13:38;;;;;;;;;3.75;3.75;;;;;27.08;27.92;101633.19;4897510;29;45233;-59
2022/07/18 02:16:04;;;;;;;;;4.50;3.75;;;;;27.08;28.06;101635.84;4898978;29;45467;-59
2022/07/18 02:18:32;;;;;;;;;3.75;3.75;;;;;27.07;27.59;101636.81;4897851;29;45484;-59
2022/07/18 02:21:00;;;;;;;;;3.00;3.00;;;;;27.07;27.93;101630.63;4898758;29;45791;-54
2022/07/18 02:23:25;;;;;;;;;4.00;4.00;;;;;27.07;27.99;101639.47;4897800;29;45258;-56
2022/07/18 02:25:51;;;;;;;;;4.75;3.75;;;;;27.08;27.67;101643.81;4898468;29;45233;-51
2022/07/18 02:28:16;;;;;;;;;3.50;3.50;;;;;27.07;27.78;101642.13;4898681;29;46031;-53
2022/07/18 02:30:41;;;;;;;;;5.25;4.00;;;;;27.07;28.14;101655.41;4898181;29;48578;-56
2022/07/18 02:33:07;;;;;;;;;3.25;3.25;;;;;27.07;27.96;101657.25;4898774;29;45230;-54
2022/07/18 02:35:32;;;;;;;;;4.00;4.00;;;;;27.05;28.14;101652.03;4898561;29;45456;-53
2022/07/18 02:37:57;;;;;;;;;4.25;3.25;;;;;27.05;27.75;101653.84;4898424;29;47900;-48
2022/07/18 02:40:23;;;;;;;;;3.00;3.00;;;;;27.04;27.88;101646.81;4898842;29;45180;-53
2022/07/18 02:42:48;;;;;;;;;9.00;4.75;;;;;27.03;27.68;101648.63;4898414;29;45257;-53
2022/07/18 02:45:14;;;;;;;;;4.00;4.00;;;;;26.98;27.46;101643.66;4898874;29;45555;-55
2022/07/18 02:47:39;;;;;;;;;4.00;4.00;;;;;26.96;27.93;101637.56;4901417;28;45415;-57
2022/07/18 02:50:05;;;;;;;;;3.00;3.00;;;;;26.94;27.35;101642.16;4901674;29;45451;-51
2022/07/18 02:52:31;;;;;;;;;4.25;3.25;;;;;26.93;27.72;101652.91;4901343;29;45361;-45
2022/07/18 02:54:56;;;;;;;;;4.50;4.50;;;;;26.89;27.97;101641.63;4902059;29;45320;-52
2022/07/18 02:57:23;;;;;;;;;5.00;4.00;;;;;26.85;27.48;101651.63;4901774;29;46160;-53
2022/07/18 02:59:48;;;;;;;;;5.00;3.25;;;;;26.83;27.75;101650.03;4901290;29;45811;-54
2022/07/18 03:02:14;;;;;;;;;4.25;4.25;;;;;26.81;27.91;101654.59;4900362;29;45469;-52
2022/07/18 03:04:39;;;;;;;;;4.00;4.00;;;;;26.80;27.74;101660.88;4901523;29;45606;-53
2022/07/18 03:07:04;;;;;;;;;5.50;3.25;;;;;26.79;27.69;101654.72;4901420;29;46145;-52
2022/07/18 03:09:30;;;;;;;;;4.00;4.00;;;;;26.79;27.67;101654.72;4899762;29;47370;-55
2022/07/18 03:11:56;;;;;;;;;4.25;4.25;;;;;26.78;28.04;101658.31;4901803;29;45336;-54
2022/07/18 03:14:22;;;;;;;;;4.00;3.00;;;;;26.77;27.63;101656.59;4901891;29;45609;-55
2022/07/18 03:16:47;;;;;;;;;3.75;3.75;;;;;26.77;27.46;101656.59;4901097;29;45265;-54
2022/07/18 03:19:12;;;;;;;;;4.00;4.00;;;;;26.75;27.85;101658.50;4901384;29;45212;-50
2022/07/18 03:21:38;;;;;;;;;3.75;3.00;;;;;26.71;27.60;101654.38;4901147;29;45349;-52
2022/07/18 03:24:03;;;;;;;;;6.25;3.75;;;;;26.70;27.77;101650.00;4901456;29;45235;-57
2022/07/18 03:26:29;;;;;;;;;3.00;3.00;;;;;26.67;27.06;101640.44;4900626;29;46052;-57
2022/07/18 03:28:55;;;;;;;;;4.00;4.00;;;;;26.66;27.50;101637.88;4901418;28;45272;-55
2022/07/18 03:31:20;;;;;;;;;3.00;3.00;;;;;26.64;27.68;101637.13;4901333;29;45603;-58
2022/07/18 03:33:45;;;;;;;;;3.75;3.75;;;;;26.63;27.38;101638.06;4900792;28;45565;-57
2022/07/18 03:36:11;;;;;;;;;3.75;3.00;;;;;26.61;27.27;101640.84;4900720;29;46082;-56
2022/07/18 03:38:36;;;;;;;;;4.00;3.00;;;;;26.59;27.31;101637.44;4900639;29;45954;-57
2022/07/18 03:41:03;;;;;;;;;6.50;4.00;;;;;26.55;27.58;101634.16;4901092;29;45813;-56
2022/07/18 03:43:29;;;;;;;;;3.25;3.25;;;;;26.54;27.48;101623.63;4900976;29;45400;-52
2022/07/18 03:45:54;;;;;;;;;4.50;3.50;;;;;26.51;27.09;101623.84;4901060;29;47117;-57
2022/07/18 03:48:19;;;;;;;;;3.25;3.25;;;;;26.49;27.25;101615.97;4900810;29;45194;-57
2022/07/18 03:50:45;;;;;;;;;4.00;4.00;;;;;26.47;27.54;101617.88;4900688;29;45319;-53
2022/07/18 03:53:10;;;;;;;;;3.00;3.00;;;;;26.48;27.48;101618.72;4901062;29;45237;-57
2022/07/18 03:55:35;;;;;;;;;4.00;3.50;;;;;26.48;27.61;101619.59;4900278;29;47087;-57
2022/07/18 03:58:01;;;;;;;;;4.75;3.75;;;;;26.51;27.49;101623.84;4899767;29;45250;-57
2022/07/18 04:00:26;;;;;;;;;4.50;4.50;;;;;26.49;27.24;101626.59;4899810;29;45457;-49
2022/07/18 04:02:51;;;;;;;;;6.25;4.50;;;;;26.50;27.58;101628.31;4901172;29;45594;-57
2022/07/18 04:05:17;;;;;;;;;6.00;4.00;;;;;26.49;27.56;101620.41;4900542;29;46214;-57
2022/07/18 04:07:43;;;;;;;;;4.75;4.75;;;;;26.49;27.29;101623.09;4900237;29;45282;-57
2022/07/18 04:10:11;;;;;;;;;3.50;3.50;;;;;26.46;27.38;101632.13;4900874;29;45612;-58
2022/07/18 04:12:45;;;;;;;;;6.50;4.00;;;;;26.46;27.75;101640.09;4883644;29;45416;-57
2022/07/18 04:15:10;;;;;;;;;4.00;4.00;;;;;26.46;27.63;101645.41;4900421;29;45323;-56
2022/07/18 04:17:36;;;;;;;;;4.00;4.00;;;;;26.46;27.97;101644.59;4898948;29;45362;-56
2022/07/18 04:20:02;;;;;;;;;3.00;3.00;;;;;26.47;27.60;101649.78;4900542;29;45714;-56
2022/07/18 04:22:27;;;;;;;;;3.25;3.25;;;;;26.49;27.55;101647.00;4900480;29;45436;-54
2022/07/18 04:24:52;;;;;;;;;2.75;2.75;;;;;26.47;27.21;101655.09;4900526;28;45509;-57
2022/07/18 04:27:18;;;;;;;;;4.25;4.25;;;;;26.44;27.41;101657.94;4900055;29;48058;-58
2022/07/18 04:29:43;;;;;;;;;3.50;3.50;;;;;26.43;27.68;101650.94;4899694;29;51408;-56
2022/07/18 04:32:08;;;;;;;;;4.75;3.75;;;;;26.42;27.56;101646.56;4900382;29;45338;-59
2022/07/18 04:34:34;;;;;;;;;4.00;4.00;;;;;26.41;27.76;101647.53;4899785;29;45245;-57
2022/07/18 04:36:59;;;;;;;;;3.75;3.75;;;;;26.40;27.71;101637.88;4899978;29;49601;-57
2022/07/18 04:39:24;;;;;;;;;4.75;4.75;;;;;26.38;27.71;101629.97;4900548;29;45300;-53
2022/07/18 04:41:50;;;;;;;;;5.75;4.00;;;;;26.39;27.75;101614.91;4900043;29;45229;-56
2022/07/18 04:44:15;;;;;;;;;3.50;3.25;;;;;26.37;27.26;101606.19;4900006;28;45305;-57
2022/07/18 04:46:40;;;;;;;;;3.50;3.50;;;;;26.36;27.44;101604.47;4899789;29;45240;-56
2022/07/18 04:49:06;;;;;;;;;3.25;3.25;;;;;26.34;27.29;101591.31;4900079;29;45409;-58
2022/07/18 04:51:32;;;;;;;;;3.50;3.50;;;;;26.32;27.63;101597.66;4899923;28;45162;-56
2022/07/18 04:53:57;;;;;;;;;4.00;4.00;;;;;26.31;27.70;101611.91;4899807;29;46180;-56
2022/07/18 04:56:22;;;;;;;;;4.00;4.00;;;;;26.30;27.85;101602.22;4900095;29;45337;-57
2022/07/18 04:58:48;;;;;;;;;4.75;4.75;;;;;26.31;27.82;101601.28;4899840;29;45234;-56
2022/07/18 05:01:13;;;;;;;;;6.75;4.25;;;;;26.29;27.85;101595.22;4900098;29;45175;-56
2022/07/18 05:03:39;;;;;;;;;7.00;4.75;;;;;26.27;27.87;101592.66;4899472;29;46097;-54
2022/07/18 05:06:05;;;;;;;;;5.00;5.00;;;;;26.26;27.76;101584.81;4899632;29;45456;-57
2022/07/18 05:08:30;;;;;;;;;3.75;3.25;;;;;26.26;27.50;101568.84;4899623;29;45400;-55
2022/07/18 05:10:55;;;;;;;;;5.00;5.00;;;;;26.26;27.94;101575.00;4900321;29;45618;-53
2022/07/18 05:13:21;;;;;;;;;4.00;4.00;;;;;26.28;27.86;101574.94;4899521;29;45360;-56
2022/07/18 05:15:46;;;;;;;;;4.00;4.00;;;;;26.28;28.15;101575.75;4899501;29;45882;-51
2022/07/18 05:18:12;;;;;;;;;3.75;3.75;;;;;26.28;27.55;101569.63;4899652;29;45375;-55
2022/07/18 05:20:37;;;;;;;;;7.25;6.00;;;;;26.29;28.09;101573.97;4899559;29;45551;-56
2022/07/18 05:23:03;;;;;;;;;5.25;5.00;;;;;26.28;27.95;101564.28;4899428;29;46195;-55
2022/07/18 05:25:28;;;;;;;;;7.00;5.00;;;;;26.29;28.33;101563.34;4899089;29;45319;-56
2022/07/18 05:27:53;;;;;;;;;4.25;4.25;;;;;26.29;27.80;101552.72;4899921;29;45371;-52
2022/07/18 05:30:20;;;;;;;;;3.25;3.25;;;;;26.32;28.38;101544.50;4899604;29;45353;-48
2022/07/18 05:32:47;;;;;;;;;4.00;4.00;;;;;26.34;28.24;101545.25;4899017;28;46912;-48
2022/07/18 05:35:13;;;;;;;;;7.75;5.00;;;;;26.32;28.12;101540.06;4899167;29;45900;-48
2022/07/18 05:37:39;;;;;;;;;6.50;4.00;;;;;26.32;28.20;101560.44;4899335;29;45456;-55
2022/07/18 05:40:07;;;;;;;;;5.75;5.00;;;;;26.31;28.33;101575.56;4899527;29;45533;-54
2022/07/18 05:42:33;;;;;;;;;7.25;6.75;;;;;26.34;28.40;101601.94;4898821;29;46390;-55
2022/07/18 05:44:58;;;;;;;;;4.00;4.00;;;;;26.37;28.15;101622.13;4899122;29;45417;-54
2022/07/18 05:47:24;;;;;;;;;4.25;3.50;;;;;26.40;28.56;101616.63;4899603;29;45385;-55
2022/07/18 05:49:49;;;;;;;;;5.00;4.00;;;;;26.43;28.55;101604.91;4899190;29;45596;-55
2022/07/18 05:52:14;;;;;;;;;6.50;5.25;;;;;26.46;28.21;101610.84;4897750;29;48146;-57
2022/07/18 05:54:40;;;;;;;;;4.00;4.00;;;;;26.46;28.05;101610.84;4898766;29;45378;-51
2022/07/18 05:57:05;;;;;;;;;5.00;5.00;;;;;26.47;28.03;101612.56;4899133;29;45345;-58
2022/07/18 05:59:30;;;;;;;;;3.00;3.00;;;;;26.46;28.05;101610.84;4899189;29;45297;-57
2022/07/18 06:01:56;;;;;;;;;6.00;5.00;;;;;26.43;27.62;101600.44;4899229;29;45328;-57
2022/07/18 06:04:21;;;;;;;;;5.75;4.00;;;;;26.43;28.05;101605.75;4899046;28;45321;-55
2022/07/18 06:06:48;;;;;;;;;8.50;4.75;;;;;26.43;28.23;101608.41;4898864;29;45240;-57
2022/07/18 06:09:13;;;;;;;;;5.50;5.50;;;;;26.42;28.43;101606.69;4899206;29;45318;-58
2022/07/18 06:11:39;;;;;;;;;4.50;4.25;;;;;26.43;27.94;101610.22;4898619;29;46153;-57
2022/07/18 06:14:04;;;;;;;;;6.25;6.25;;;;;26.43;28.64;101605.75;4899026;29;45397;-54
2022/07/18 06:16:30;;;;;;;;;6.25;5.00;;;;;26.45;28.25;101603.84;4898531;29;45251;-56
2022/07/18 06:18:57;;;;;;;;;5.00;5.00;;;;;26.46;28.51;101600.22;4899358;29;45336;-57
2022/07/18 06:21:23;;;;;;;;;5.25;5.25;;;;;26.45;28.00;101593.22;4900583;29;46330;-57
2022/07/18 06:23:48;;;;;;;;;6.00;4.00;;;;;26.45;28.36;101598.53;4901812;28;45418;-54
2022/07/18 06:26:13;;;;;;;;;7.25;6.00;;;;;26.47;28.36;101601.06;4901976;29;45478;-53
2022/07/18 06:28:39;;;;;;;;;5.00;5.00;;;;;26.45;28.23;101603.84;4901917;29;45530;-55
2022/07/18 06:31:04;;;;;;;;;6.00;5.00;;;;;26.46;28.29;101602.88;4901402;29;50554;-56
2022/07/18 06:33:30;;;;;;;;;7.00;5.00;;;;;26.47;28.81;101598.41;4901522;28;45400;-54
2022/07/18 06:35:56;;;;;;;;;5.00;5.00;;;;;26.47;28.85;101601.94;4902192;28;45254;-53
2022/07/18 06:38:21;;;;;;;;;8.25;6.00;;;;;26.51;28.20;101602.56;4902355;29;45238;-58
2022/07/18 06:40:47;;;;;;;;;4.25;4.25;;;;;26.53;28.24;101608.63;4901364;29;45444;-58
2022/07/18 06:43:18;;;;;;;;;6.25;6.00;;;;;26.55;28.76;101612.88;4901740;29;45349;-57
2022/07/18 06:45:44;;;;;;;;;6.50;6.50;;;;;26.58;28.57;101616.28;4901513;29;45444;-56
2022/07/18 06:48:10;;;;;;;;;3.75;3.75;;;;;26.60;28.69;101611.72;4901775;29;45630;-58
2022/07/18 06:50:35;;;;;;;;;6.50;5.00;;;;;26.62;28.47;101620.44;4901246;29;46593;-56
2022/07/18 06:53:00;;;;;;;;;7.00;6.50;;;;;26.65;28.95;101614.91;4901445;29;45289;-54
2022/07/18 06:55:26;;;;;;;;;9.25;7.25;;;;;26.67;28.30;101618.31;4901843;29;45463;-56
2022/07/18 06:57:51;;;;;;;;;7.00;5.75;;;;;26.66;28.54;101616.59;4901622;29;45647;-57
2022/07/18 07:00:16;;;;;;;;;5.50;5.50;;;;;26.67;28.53;101621.84;4901344;28;45982;-57
2022/07/18 07:02:47;;;;;;;;;6.50;6.00;;;;;26.69;27.86;101611.91;4900993;29;45383;-57
2022/07/18 07:05:14;;;;;;;;;8.25;7.00;;;;;26.70;28.45;101618.94;4901586;29;45499;-56
2022/07/18 07:07:40;;;;;;;;;6.50;6.00;;;;;26.73;28.36;101611.72;4901360;29;45435;-56
2022/07/18 07:10:06;;;;;;;;;5.00;4.00;;;;;26.74;28.85;101605.44;4901280;29;45376;-57
2022/07/18 07:12:38;;;;;;;;;7.00;5.00;;;;;26.76;28.80;101612.34;4901143;29;45400;-58
2022/07/18 07:15:04;;;;;;;;;6.50;6.00;;;;;26.77;28.04;101616.69;4901407;29;45392;-58
2022/07/18 07:17:30;;;;;;;;;6.00;6.00;;;;;26.78;28.67;101614.94;4901258;29;45388;-55
2022/07/18 07:19:55;;;;;;;;;4.75;4.75;;;;;26.79;28.34;101625.47;4901449;29;46233;-58
2022/07/18 07:22:20;;;;;;;;;6.75;6.25;;;;;26.81;28.42;101620.88;4901078;29;45773;-58
2022/07/18 07:24:45;;;;;;;;;5.00;4.00;;;;;26.82;28.25;101627.91;4900860;29;45206;-57
2022/07/18 07:27:11;;;;;;;;;8.00;5.00;;;;;26.84;28.14;101615.34;4900966;28;45737;-58
2022/07/18 07:29:36;;;;;;;;;5.00;5.00;;;;;26.86;28.36;101609.94;4900736;28;49076;-57
2022/07/18 07:32:01;;;;;;;;;6.00;4.75;;;;;26.88;27.87;101607.16;4899659;29;51548;-54
2022/07/18 07:34:28;;;;;;;;;6.00;6.00;;;;;26.89;27.77;101606.19;4901001;28;45215;-50
2022/07/18 07:36:53;;;;;;;;;8.00;5.00;;;;;26.91;28.01;101604.28;4901373;29;45646;-58
2022/07/18 07:39:18;;;;;;;;;5.75;5.25;;;;;26.91;27.85;101602.44;4900783;28;46123;-57
2022/07/18 07:41:44;;;;;;;;;3.00;3.00;;;;;26.93;27.76;101605.88;4900099;29;57714;-52
2022/07/18 07:44:09;;;;;;;;;6.00;6.00;;;;;26.95;27.78;101603.13;4900813;29;45349;-57
2022/07/18 07:46:35;;;;;;;;;6.00;6.00;;;;;26.96;28.06;101596.81;4900630;29;45471;-56
2022/07/18 07:49:00;;;;;;;;;6.75;6.75;;;;;26.96;28.12;101596.81;4900715;28;46050;-55
2022/07/18 07:51:27;;;;;;;;;7.00;6.50;;;;;26.98;27.94;101595.75;4901065;29;45306;-56
2022/07/18 07:53:52;;;;;;;;;5.50;5.50;;;;;26.97;27.82;101593.19;4901446;28;45495;-57
2022/07/18 07:56:19;;;;;;;;;8.75;6.00;;;;;27.00;28.27;101588.53;4901027;29;45471;-57
2022/07/18 07:58:45;;;;;;;;;6.00;4.50;;;;;27.04;28.51;101598.91;4900433;29;45518;-56
2022/07/18 08:01:11;;;;;;;;;9.00;7.50;;;;;27.05;28.21;101592.66;4900548;29;45277;-58
2022/07/18 08:03:37;;;;;;;;;9.50;5.25;;;;;27.08;28.22;101584.44;4900554;28;45193;-57
2022/07/18 08:06:03;;;;;;;;;7.00;7.00;;;;;27.10;28.25;101588.69;4900903;29;45510;-57
2022/07/18 08:08:28;;;;;;;;;8.00;7.00;;;;;27.12;28.40;101580.63;4900210;29;46168;-57
2022/07/18 08:10:53;;;;;;;;;8.50;6.25;;;;;27.13;28.24;101582.28;4900682;29;45246;-56
2022/07/18 08:13:19;;;;;;;;;6.00;5.50;;;;;27.15;28.16;101583.91;4899266;28;45817;-52
2022/07/18 08:15:44;;;;;;;;;6.50;6.25;;;;;27.16;28.00;101582.09;4900335;29;45547;-56
2022/07/18 08:18:11;;;;;;;;;7.50;7.00;;;;;27.18;28.42;101582.81;4900198;29;46183;-57
2022/07/18 08:20:36;;;;;;;;;9.75;7.25;;;;;27.20;28.15;101582.69;4900117;29;45927;-57
2022/07/18 08:23:07;;;;;;;;;7.50;7.25;;;;;27.20;28.59;101580.91;4899235;29;45805;-56
2022/07/18 08:25:36;;;;;;;;;7.75;7.00;;;;;27.22;28.64;101580.78;4900146;29;45244;-58
2022/07/18 08:28:03;;;;;;;;;7.00;7.00;;;;;27.24;28.66;101578.88;4900160;29;46111;-57
2022/07/18 08:30:29;;;;;;;;;7.00;7.00;;;;;27.25;28.51;101573.44;4899939;29;45436;-55
2022/07/18 08:32:55;;;;;;;;;6.25;6.25;;;;;27.26;28.63;101583.13;4900634;29;45436;-58
2022/07/18 08:35:20;;;;;;;;;7.00;7.00;;;;;27.28;28.91;101583.84;4900400;29;45614;-56
2022/07/18 08:37:46;;;;;;;;;11.00;7.00;;;;;27.30;28.79;101576.63;4899842;29;46143;-57
2022/07/18 08:40:12;;;;;;;;;7.00;6.00;;;;;27.33;28.79;101586.19;4900286;29;45369;-57
2022/07/18 08:42:38;;;;;;;;;10.00;7.00;;;;;27.34;28.90;101571.91;4899821;29;45336;-56
2022/07/18 08:45:04;;;;;;;;;8.50;6.25;;;;;27.38;28.63;101583.19;4899912;29;45230;-56
2022/07/18 08:47:30;;;;;;;;;6.00;6.00;;;;;27.40;28.89;101575.94;4899511;29;46162;-56
2022/07/18 08:49:56;;;;;;;;;6.25;6.25;;;;;27.41;28.55;101578.47;4898999;29;46049;-57
2022/07/18 08:52:22;;;;;;;;;10.75;8.00;;;;;27.41;28.79;101567.81;4900414;29;45897;-57
2022/07/18 08:54:51;;;;;;;;;5.75;5.50;;;;;27.44;28.78;101577.47;4899819;29;45321;-56
2022/07/18 08:57:19;;;;;;;;;6.00;6.00;;;;;27.44;28.96;101580.94;4899638;29;45411;-56
2022/07/18 08:59:44;;;;;;;;;7.50;6.25;;;;;27.44;28.83;101580.13;4899385;29;45473;-57
2022/07/18 09:02:10;;;;;;;;;10.25;8.25;;;;;27.43;28.66;101589.88;4899872;29;45506;-58
2022/07/18 09:04:44;;;;;;;;;9.75;8.50;;;;;27.43;28.78;101576.56;4882722;29;45368;-59
2022/07/18 09:07:22;;;;;;;;;8.25;7.25;;;;;27.44;28.93;101580.13;4899733;29;46122;-58
2022/07/18 09:09:53;;;;;;;;;9.50;7.00;;;;;27.45;28.75;101571.16;4899487;29;45357;-58
2022/07/18 09:12:20;;;;;;;;;7.75;7.75;;;;;27.45;29.03;101577.34;4899716;29;45405;-57
2022/07/18 09:14:45;;;;;;;;;7.75;7.25;;;;;27.44;28.68;101575.63;4899545;29;45503;-55
2022/07/18 09:17:15;;;;;;;;;6.75;5.75;;;;;27.45;28.45;101571.16;4899545;29;46241;-58
2022/07/18 09:20:00;;;;;;;;;9.75;8.00;;;;;27.46;28.69;101578.16;4899350;28;45829;-57
2022/07/18 09:22:29;;;;;;;;;10.25;8.25;;;;;27.45;28.68;101574.66;4882913;29;45444;-55
2022/07/18 09:25:06;;;;;;;;;8.25;8.00;;;;;27.46;28.94;101579.03;4899886;29;45330;-56
2022/07/18 09:27:41;;;;;;;;;8.00;7.00;;;;;27.47;28.80;101569.22;4899091;29;47616;-54
2022/07/18 09:30:21;;;;;;;;;10.75;9.75;;;;;27.46;28.71;101572.84;4899555;29;46057;-54
2022/07/18 09:32:53;;;;;;;;;10.50;9.75;;;;;27.49;28.63;101571.78;4899411;29;45406;-54
2022/07/18 09:35:26;;;;;;;;;8.50;7.00;;;;;27.49;28.33;101572.63;4899604;29;45583;-57
2022/07/18 09:38:10;;;;;;;;;9.25;7.50;;;;;27.50;28.61;101577.00;4899536;29;46622;-62
2022/07/18 09:40:41;;;;;;;;;8.00;8.00;;;;;27.50;28.80;101578.81;4882044;29;45765;-56
2022/07/18 09:43:09;;;;;;;;;8.75;6.75;;;;;27.50;28.55;101577.00;4883198;29;45482;-60
2022/07/18 09:45:41;;;;;;;;;8.25;8.00;;;;;27.52;28.55;101576.88;4899292;29;45539;-57
2022/07/18 09:48:09;;;;;;;;;7.25;6.25;;;;;27.52;28.37;101584.84;4899214;29;45555;-55
2022/07/18 09:50:41;;;;;;;;;7.00;7.00;;;;;27.52;28.39;101583.06;4899063;28;45197;-59
2022/07/18 09:53:25;;;;;;;;;7.50;7.50;;;;;27.53;28.85;101578.56;4899576;29;45272;-55
2022/07/18 09:56:11;;;;;;;;;8.25;7.75;;;;;27.53;28.78;101589.22;4900398;29;45381;-53
2022/07/18 09:58:41;;;;;;;;;8.00;8.00;;;;;27.52;28.73;101583.06;4885477;29;46225;-56
2022/07/18 10:01:10;;;;;;;;;8.00;7.50;;;;;27.52;28.84;101582.19;4902469;28;45450;-57
2022/07/18 10:03:36;;;;;;;;;7.50;7.50;;;;;27.51;28.78;101583.16;4902107;29;45410;-59
2022/07/18 10:06:03;;;;;;;;;9.50;7.75;;;;;27.51;28.66;101585.81;4902203;28;45308;-53
2022/07/18 10:08:31;;;;;;;;;7.75;6.75;;;;;27.52;28.72;101574.19;4901516;29;45294;-54
2022/07/18 10:10:59;;;;;;;;;8.50;7.50;;;;;27.51;28.67;101575.16;4902025;29;45287;-52
2022/07/18 10:13:25;;;;;;;;;7.00;6.25;;;;;27.48;28.59;101562.09;4902515;29;45475;-54
2022/07/18 10:15:51;;;;;;;;;7.25;6.00;;;;;27.49;28.70;101558.47;4902133;29;45228;-55
2022/07/18 10:18:23;;;;;;;;;10.25;8.25;;;;;27.52;28.67;101566.22;4902206;29;46457;-57
2022/07/18 10:20:57;;;;;;;;;7.00;7.00;;;;;27.53;28.81;101554.59;4901965;29;45856;-49
2022/07/18 10:23:26;;;;;;;;;7.75;7.75;;;;;27.52;28.81;101559.09;4902609;29;45328;-58
2022/07/18 10:26:15;;;;;;;;;11.50;9.00;;;;;27.49;28.56;101546.00;4902751;29;45231;-54
2022/07/18 10:29:03;;;;;;;;;9.00;7.75;;;;;27.54;28.86;101543.84;4901721;29;46028;-56
2022/07/18 10:31:33;;;;;;;;;13.25;9.00;;;;;27.53;28.81;101547.47;4900903;29;45808;-56
2022/07/18 10:34:04;;;;;;;;;7.25;7.25;;;;;27.54;28.93;101550.97;4902245;29;45260;-56
2022/07/18 10:36:30;;;;;;;;;7.00;7.00;;;;;27.52;28.66;101547.56;4901980;29;45435;-51
2022/07/18 10:39:15;;;;;;;;;8.00;7.25;;;;;27.55;28.86;101547.34;4902129;29;46309;-55
2022/07/18 10:41:43;;;;;;;;;7.25;7.00;;;;;27.55;28.89;101539.38;4900323;29;45728;-57
2022/07/18 10:44:24;;;;;;;;;7.50;7.50;;;;;27.57;28.94;101548.09;4902062;28;45307;-57
2022/07/18 10:47:24;;;;;;;;;10.25;8.00;;;;;27.56;29.02;101549.06;4901751;29;45564;-48
2022/07/18 10:49:49;;;;;;;;;6.00;6.00;;;;;27.58;29.12;101544.47;4901308;29;46341;-57
2022/07/18 10:52:27;;;;;;;;;12.50;8.25;;;;;27.60;29.06;101546.06;4901558;29;45372;-56
2022/07/18 10:55:19;;;;;;;;;8.00;6.00;;;;;27.62;29.01;101546.78;4901955;29;45382;-56
2022/07/18 10:57:50;;;;;;;;;9.00;9.00;;;;;27.62;29.10;101548.59;4901714;29;45300;-57
2022/07/18 11:00:35;;;;;;;;;11.00;7.50;;;;;27.61;29.06;101542.44;4901393;28;46422;-55
2022/07/18 11:03:00;;;;;;;;;9.25;8.75;;;;;27.65;29.08;101542.22;4901537;29;45401;-58
2022/07/18 11:05:25;;;;;;;;;7.00;7.00;;;;;27.64;29.47;101533.34;4902000;29;45313;-55
2022/07/18 11:08:06;;;;;;;;;8.00;8.00;;;;;27.66;29.11;101536.75;4900001;29;45558;-51
2022/07/18 11:10:47;;;;;;;;;8.75;8.75;;;;;27.69;29.29;101541.00;4901080;29;46030;-59
2022/07/18 11:13:24;;;;;;;;;10.50;7.75;;;;;27.70;29.09;101532.91;4901333;29;45242;-59
2022/07/18 11:16:06;;;;;;;;;7.25;7.00;;;;;27.72;29.17;101538.97;4901062;29;45344;-58
2022/07/18 11:18:42;;;;;;;;;9.25;8.25;;;;;27.73;28.99;101522.00;4901331;29;45185;-59
2022/07/18 11:21:18;;;;;;;;;10.25;9.25;;;;;27.77;29.39;101527.97;4901186;29;47351;-57
2022/07/18 11:23:47;;;;;;;;;7.25;7.25;;;;;27.79;29.24;101520.69;4900891;29;45728;-58
2022/07/18 11:26:18;;;;;;;;;10.00;8.75;;;;;27.82;29.16;101519.63;4901106;29;45372;-58
2022/07/18 11:28:45;;;;;;;;;9.00;9.00;;;;;27.84;29.19;101515.88;4901231;29;45647;-57